Time;durP1;ratioP1;P1;durP2;ratioP2;P2;SDS_P1;SDS_P2;PMS_P1;PMS_P2;Temp;Humidity;BMP_temperature;BMP_pressure;BME280_temperature;BME280_humidity;BME280_pressure;Samples;Min_cycle;Max_cycle;Signal;HPM_P1;HPM_P2
2024/02/29 00:02:23;;;;;;;50.77;27.47;;;;;;;;;;5054496;28;20286;-65
2024/02/29 00:04:50;;;;;;;45.93;24.73;;;7.30;99.90;;;;;;5049526;28;20203;-65
2024/02/29 00:07:19;;;;;;;50.90;26.90;;;7.70;99.90;;;;;;5049977;28;20254;-65
2024/02/29 00:09:46;;;;;;;58.00;29.37;;;7.50;99.90;;;;;;5049875;28;20232;-66
2024/02/29 00:12:13;;;;;;;49.10;25.73;;;7.50;99.90;;;;;;5052066;28;20629;-65
2024/02/29 00:14:41;;;;;;;51.83;26.47;;;7.50;99.90;;;;;;5042487;28;20210;-66
2024/02/29 00:17:08;;;;;;;49.53;26.33;;;7.50;99.90;;;;;;5047905;28;20207;-65
2024/02/29 00:19:35;;;;;;;56.00;26.43;;;7.50;99.90;;;;;;5052359;28;20208;-65
2024/02/29 00:22:02;;;;;;;49.27;24.97;;;7.50;99.90;;;;;;5042904;28;20271;-66
2024/02/29 00:24:30;;;;;;;47.33;25.63;;;;;;;;;;5049387;28;20286;-65
2024/02/29 00:26:58;;;;;;;45.67;25.23;;;;;;;;;;5056063;28;20318;-65
2024/02/29 00:29:27;;;;;;;43.00;25.83;;;;;;;;;;5054020;28;20657;-65
2024/02/29 00:32:00;;;;;;;49.13;27.10;;;;;;;;;;5047589;28;20196;-65
2024/02/29 00:34:27;;;;;;;48.80;26.17;;;;;;;;;;5045639;28;20347;-65
2024/02/29 00:36:54;;;;;;;44.43;24.90;;;;;;;;;;5044384;28;20257;-66
2024/02/29 00:39:22;;;;;;;48.80;26.10;;;;;;;;;;5056823;28;20203;-65
2024/02/29 00:41:50;;;;;;;51.37;26.63;;;7.30;99.90;;;;;;5048215;28;20772;-66
2024/02/29 00:44:17;;;;;;;44.00;24.37;;;7.30;99.90;;;;;;5043183;28;20295;-65
2024/02/29 00:46:44;;;;;;;51.00;26.83;;;7.30;99.90;;;;;;5057856;28;20201;-65
2024/02/29 00:49:13;;;;;;;49.47;26.53;;;7.30;99.90;;;;;;5057177;28;20200;-65
2024/02/29 00:51:40;;;;;;;43.03;22.70;;;7.30;99.90;;;;;;5046064;28;20199;-65
2024/02/29 00:54:07;;;;;;;53.93;26.77;;;7.40;99.90;;;;;;5051207;28;20216;-65
2024/02/29 00:56:34;;;;;;;46.93;26.47;;;7.40;99.90;;;;;;5050681;28;20258;-65
2024/02/29 00:59:02;;;;;;;50.97;26.20;;;;;;;;;;5054386;28;20277;-65
2024/02/29 01:01:30;;;;;;;44.27;25.13;;;;;;;;;;5046186;28;20634;-65
2024/02/29 01:03:57;;;;;;;44.70;23.43;;;;;;;;;;5034344;28;20279;-65
2024/02/29 01:06:24;;;;;;;44.37;25.60;;;;;;;;;;5050304;28;20194;-65
2024/02/29 01:08:51;;;;;;;46.57;26.13;;;;;;;;;;5053739;28;20729;-65
2024/02/29 01:11:19;;;;;;;55.10;25.73;;;;;;;;;;5054205;28;20200;-65
2024/02/29 01:13:46;;;;;;;42.93;24.77;;;7.40;99.90;;;;;;5053838;28;20239;-65
2024/02/29 01:16:14;;;;;;;43.80;25.60;;;7.40;99.90;;;;;;5050909;28;20201;-65
2024/02/29 01:18:41;;;;;;;45.53;25.27;;;7.30;99.90;;;;;;5054025;28;20237;-66
2024/02/29 01:21:08;;;;;;;47.80;24.57;;;7.30;99.90;;;;;;5048306;28;20197;-65
2024/02/29 01:23:35;;;;;;;49.17;26.03;;;7.20;99.90;;;;;;5053356;28;20311;-66
2024/02/29 01:26:03;;;;;;;46.63;24.50;;;7.20;99.90;;;;;;5053109;28;20203;-65
2024/02/29 01:28:30;;;;;;;42.23;24.43;;;7.20;99.90;;;;;;5051875;28;20199;-65
2024/02/29 01:30:59;;;;;;;46.73;24.53;;;7.30;99.90;;;;;;5053584;28;20748;-66
2024/02/29 01:33:28;;;;;;;48.53;25.00;;;7.20;99.90;;;;;;5053448;28;20700;-65
2024/02/29 01:35:54;;;;;;;44.83;23.93;;;7.20;99.90;;;;;;5053113;28;20566;-65
2024/02/29 01:38:21;;;;;;;42.87;24.77;;;7.20;99.90;;;;;;5049866;28;20225;-65
2024/02/29 01:40:48;;;;;;;47.07;24.70;;;7.20;99.90;;;;;;5049349;28;20205;-65
2024/02/29 01:43:15;;;;;;;43.50;23.90;;;7.20;99.90;;;;;;5053136;28;20223;-65
2024/02/29 01:45:42;;;;;;;48.37;22.93;;;7.10;99.90;;;;;;5052458;28;20696;-65
2024/02/29 01:48:11;;;;;;;44.80;25.80;;;7.10;99.90;;;;;;5053456;28;20211;-66
2024/02/29 01:50:40;;;;;;;46.67;25.20;;;7.10;99.90;;;;;;5053056;28;20209;-65
2024/02/29 01:53:07;;;;;;;46.33;26.90;;;7.10;99.90;;;;;;5051487;28;20773;-63
2024/02/29 01:55:34;;;;;;;48.33;26.47;;;7.10;99.90;;;;;;5052105;28;20196;-63
2024/02/29 01:58:01;;;;;;;50.43;26.60;;;;;;;;;;5046963;28;20203;-64
2024/02/29 02:00:28;;;;;;;48.43;26.77;;;;;;;;;;5044242;28;20645;-63
2024/02/29 02:02:56;;;;;;;47.23;26.70;;;;;;;;;;5038200;28;20301;-63
2024/02/29 02:05:23;;;;;;;54.03;27.20;;;;;;;;;;5059672;28;20682;-63
2024/02/29 02:07:52;;;;;;;56.33;27.03;;;;;;;;;;5050498;28;20200;-63
2024/02/29 02:10:21;;;;;;;52.57;28.70;;;;;;;;;;5052944;28;20215;-63
2024/02/29 02:12:48;;;;;;;51.87;26.77;;;;;;;;;;5053238;28;20225;-63
2024/02/29 02:15:15;;;;;;;43.67;25.80;;;;;;;;;;5048472;28;20285;-63
2024/02/29 02:17:43;;;;;;;48.93;24.67;;;;;;;;;;5042879;28;20210;-63
2024/02/29 02:20:15;;;;;;;45.47;25.73;;;;;;;;;;5052707;28;20195;-63
2024/02/29 02:22:42;;;;;;;54.03;27.07;;;6.90;99.90;;;;;;5052778;28;20592;-62
2024/02/29 02:25:09;;;;;;;51.30;27.33;;;6.90;99.90;;;;;;5051226;28;20241;-63
2024/02/29 02:27:39;;;;;;;56.37;25.40;;;6.80;99.90;;;;;;5052966;28;20280;-64
2024/02/29 02:30:07;;;;;;;45.23;26.43;;;6.80;99.90;;;;;;5047198;28;20279;-63
2024/02/29 02:32:35;;;;;;;54.27;27.20;;;;;;;;;;5049474;28;20194;-62
2024/02/29 02:35:04;;;;;;;48.70;26.13;;;;;;;;;;5054793;28;20199;-63
2024/02/29 02:37:33;;;;;;;48.17;25.97;;;;;;;;;;5058117;28;20211;-63
2024/02/29 02:40:00;;;;;;;49.40;24.20;;;;;;;;;;5052333;28;20776;-64
2024/02/29 02:42:27;;;;;;;45.53;26.93;;;;;;;;;;5049844;28;20658;-63
2024/02/29 02:44:54;;;;;;;50.97;26.00;;;6.90;99.90;;;;;;5050881;28;20198;-63
2024/02/29 02:47:21;;;;;;;51.73;27.80;;;7.00;99.90;;;;;;5070713;28;20194;-63
2024/02/29 02:49:48;;;;;;;44.20;26.10;;;6.90;99.90;;;;;;5072038;28;20252;-63
2024/02/29 02:52:15;;;;;;;46.67;25.97;;;7.00;99.90;;;;;;5064685;28;20671;-63
2024/02/29 02:54:44;;;;;;;48.03;26.40;;;7.00;99.90;;;;;;5036280;28;20205;-63
2024/02/29 02:57:11;;;;;;;52.10;26.53;;;;;;;;;;5052224;28;20266;-63
2024/02/29 02:59:38;;;;;;;50.80;28.10;;;6.80;99.90;;;;;;5049773;28;20251;-63
2024/02/29 03:02:05;;;;;;;47.03;25.87;;;6.80;99.90;;;;;;5052871;28;20205;-63
2024/02/29 03:04:32;;;;;;;46.80;26.13;;;6.90;99.90;;;;;;5038767;28;20750;-63
2024/02/29 03:06:59;;;;;;;50.00;27.87;;;;;;;;;;5049503;28;20667;-63
2024/02/29 03:09:26;;;;;;;47.03;26.30;;;6.80;99.90;;;;;;5051975;28;20241;-64
2024/02/29 03:11:54;;;;;;;43.40;25.20;;;6.90;99.90;;;;;;5051767;28;20203;-64
2024/02/29 03:14:22;;;;;;;52.27;26.73;;;;;;;;;;5050737;28;20285;-64
2024/02/29 03:16:48;;;;;;;47.53;24.57;;;6.80;99.90;;;;;;5049029;28;20215;-63
2024/02/29 03:19:15;;;;;;;56.73;28.90;;;6.90;99.90;;;;;;5049892;28;20362;-63
2024/02/29 03:21:42;;;;;;;52.43;27.23;;;6.90;99.90;;;;;;5048932;28;20238;-64
2024/02/29 03:24:09;;;;;;;47.73;26.40;;;6.80;99.90;;;;;;5045631;28;20231;-63
2024/02/29 03:26:36;;;;;;;48.23;26.97;;;6.80;99.90;;;;;;5049387;28;20204;-63
2024/02/29 03:29:05;;;;;;;48.50;26.67;;;6.80;99.90;;;;;;5059857;28;20256;-64
2024/02/29 03:31:32;;;;;;;47.50;26.33;;;6.80;99.90;;;;;;5066909;28;20242;-63
2024/02/29 03:33:59;;;;;;;48.30;26.60;;;6.80;99.90;;;;;;5044683;28;20240;-63
2024/02/29 03:36:27;;;;;;;46.70;26.23;;;6.90;99.90;;;;;;5050756;28;20264;-63
2024/02/29 03:38:54;;;;;;;49.93;27.27;;;;;;;;;;5051531;28;20243;-63
2024/02/29 03:41:21;;;;;;;54.13;27.17;;;;;;;;;;5051501;28;20209;-63
2024/02/29 03:43:48;;;;;;;54.93;27.27;;;;;;;;;;5044811;28;20231;-64
2024/02/29 03:46:17;;;;;;;47.07;26.07;;;;;;;;;;5047118;28;20200;-63
2024/02/29 03:48:45;;;;;;;54.60;28.40;;;;;;;;;;5052258;28;20209;-64
2024/02/29 03:51:12;;;;;;;49.30;27.27;;;6.80;99.90;;;;;;5051204;28;20200;-63
2024/02/29 03:53:39;;;;;;;49.47;27.97;;;;;;;;;;5045204;28;20760;-63
2024/02/29 03:56:07;;;;;;;56.67;29.97;;;;;;;;;;5050107;28;20205;-63
2024/02/29 03:58:34;;;;;;;49.97;27.87;;;;;;;;;;5048859;28;20679;-64
2024/02/29 04:01:02;;;;;;;51.97;27.17;;;;;;;;;;5039398;28;20207;-62
2024/02/29 04:03:30;;;;;;;49.43;26.57;;;;;;;;;;5051855;28;20232;-63
2024/02/29 04:05:57;;;;;;;53.63;26.43;;;;;;;;;;5046333;28;20292;-63
2024/02/29 04:08:25;;;;;;;51.97;26.70;;;;;;;;;;5047629;28;20664;-64
2024/02/29 04:10:52;;;;;;;60.87;28.13;;;;;;;;;;5041471;28;20204;-63
2024/02/29 04:13:19;;;;;;;53.43;29.43;;;;;;;;;;5045160;28;20281;-63
2024/02/29 04:15:46;;;;;;;48.90;27.23;;;;;;;;;;5034062;28;20213;-62
2024/02/29 04:18:14;;;;;;;50.13;28.17;;;;;;;;;;5050283;28;20811;-63
2024/02/29 04:20:43;;;;;;;53.67;28.23;;;;;;;;;;5041002;28;20200;-63
2024/02/29 04:23:11;;;;;;;53.30;28.73;;;;;;;;;;5039499;28;20235;-62
2024/02/29 04:25:38;;;;;;;52.87;27.53;;;;;;;;;;5035973;28;20203;-63
2024/02/29 04:28:06;;;;;;;49.53;28.00;;;;;;;;;;5037467;28;20656;-63
2024/02/29 04:30:33;;;;;;;57.80;29.30;;;;;;;;;;5040929;28;20203;-62
2024/02/29 04:33:02;;;;;;;54.33;29.90;;;;;;;;;;5043937;28;20611;-63
2024/02/29 04:35:30;;;;;;;53.30;29.33;;;;;;;;;;5040443;28;20214;-63
2024/02/29 04:37:59;;;;;;;61.10;30.33;;;;;;;;;;5053072;28;20637;-64
2024/02/29 04:40:27;;;;;;;49.97;28.00;;;6.70;99.90;;;;;;5049246;28;20969;-62
2024/02/29 04:42:54;;;;;;;56.67;29.37;;;;;;;;;;5054789;28;20757;-63
2024/02/29 04:45:23;;;;;;;55.10;27.17;;;;;;;;;;5055183;28;20203;-63
2024/02/29 04:47:50;;;;;;;49.17;26.53;;;;;;;;;;5056732;28;20700;-63
2024/02/29 04:50:18;;;;;;;49.07;26.63;;;;;;;;;;5056150;28;20204;-63
2024/02/29 04:52:45;;;;;;;50.27;25.77;;;;;;;;;;5058514;28;20711;-63
2024/02/29 04:55:14;;;;;;;47.30;25.87;;;;;;;;;;5051824;28;20734;-63
2024/02/29 04:57:41;;;;;;;59.97;29.57;;;;;;;;;;5046869;28;20252;-63
2024/02/29 05:00:10;;;;;;;52.27;28.17;;;;;;;;;;5049505;28;20564;-63
2024/02/29 05:02:37;;;;;;;52.93;27.90;;;;;;;;;;5055601;28;20231;-62
2024/02/29 05:05:06;;;;;;;48.83;27.77;;;;;;;;;;5041771;28;20253;-63
2024/02/29 05:07:33;;;;;;;59.50;30.00;;;;;;;;;;5055013;28;20617;-64
2024/02/29 05:10:01;;;;;;;55.23;28.80;;;;;;;;;;5058742;28;20199;-63
2024/02/29 05:12:33;;;;;;;46.47;26.17;;;;;;;;;;5052917;28;20577;-63
2024/02/29 05:15:00;;;;;;;50.53;27.73;;;;;;;;;;5053401;28;20210;-63
2024/02/29 05:17:28;;;;;;;56.03;28.50;;;;;;;;;;5055775;28;20199;-63
2024/02/29 05:19:56;;;;;;;53.23;27.73;;;;;;;;;;5059470;28;20196;-63
2024/02/29 05:22:23;;;;;;;51.13;27.53;;;;;;;;;;5048658;28;20200;-63
2024/02/29 05:24:50;;;;;;;57.57;29.87;;;;;;;;;;5054381;28;20718;-64
2024/02/29 05:27:18;;;;;;;50.97;28.03;;;;;;;;;;5053650;28;20203;-63
2024/02/29 05:29:47;;;;;;;52.67;28.27;;;;;;;;;;5052835;28;20209;-62
2024/02/29 05:32:14;;;;;;;56.00;30.80;;;;;;;;;;5054569;28;20209;-64
2024/02/29 05:34:41;;;;;;;49.07;25.70;;;;;;;;;;5055783;28;20196;-63
2024/02/29 05:37:09;;;;;;;54.67;29.47;;;;;;;;;;5058830;28;20233;-62
2024/02/29 05:39:36;;;;;;;55.50;30.03;;;6.70;99.90;;;;;;5048226;28;20201;-63
2024/02/29 05:42:03;;;;;;;50.73;27.80;;;6.80;99.90;;;;;;5043640;28;20209;-63
2024/02/29 05:44:30;;;;;;;54.67;28.23;;;6.80;99.90;;;;;;5047931;28;20223;-63
2024/02/29 05:46:59;;;;;;;51.43;28.03;;;6.90;99.90;;;;;;5053965;28;20214;-65
2024/02/29 05:49:26;;;;;;;47.53;27.67;;;6.80;99.90;;;;;;5055630;28;20211;-65
2024/02/29 05:51:53;;;;;;;51.20;27.47;;;;;;;;;;5055361;28;20207;-65
2024/02/29 05:54:20;;;;;;;44.20;25.53;;;;;;;;;;5050998;28;20747;-65
2024/02/29 05:56:48;;;;;;;51.77;28.10;;;;;;;;;;5055646;28;20200;-65
2024/02/29 05:59:15;;;;;;;56.73;28.93;;;;;;;;;;5055223;28;20227;-65
2024/02/29 06:01:42;;;;;;;51.47;28.73;;;;;;;;;;5053533;28;20207;-65
2024/02/29 06:04:11;;;;;;;56.90;30.40;;;;;;;;;;5051333;28;20286;-65
2024/02/29 06:06:38;;;;;;;50.97;28.63;;;;;;;;;;5057759;28;20203;-65
2024/02/29 06:09:05;;;;;;;55.25;32.05;;;;;;;;;;5049035;28;20932;-65
2024/02/29 06:11:33;;;;;;;57.60;30.83;;;;;;;;;;5051204;28;20215;-66
2024/02/29 06:14:03;;;;;;;50.43;28.47;;;;;;;;;;5054423;28;20254;-66
2024/02/29 06:16:30;;;;;;;53.97;29.77;;;;;;;;;;5053749;28;20204;-65
2024/02/29 06:18:57;;;;;;;54.87;30.13;;;;;;;;;;5060913;28;20193;-65
2024/02/29 06:21:26;;;;;;;53.60;27.63;;;;;;;;;;5058693;28;20202;-65
2024/02/29 06:23:54;;;;;;;54.97;29.33;;;;;;;;;;5055321;28;20234;-71
2024/02/29 06:26:24;;;;;;;49.90;30.03;;;;;;;;;;5050882;28;20228;-70
2024/02/29 06:28:51;;;;;;;55.13;28.90;;;;;;;;;;5051717;28;20259;-70
2024/02/29 06:31:18;;;;;;;53.67;28.20;;;;;;;;;;5055754;28;20261;-70
2024/02/29 06:33:46;;;;;;;52.47;27.77;;;;;;;;;;5058045;28;20726;-66
2024/02/29 06:36:13;;;;;;;54.10;28.73;;;;;;;;;;5058169;28;20264;-67
2024/02/29 06:38:41;;;;;;;48.70;27.40;;;;;;;;;;5050076;28;20253;-68
2024/02/29 06:41:10;;;;;;;57.43;29.33;;;;;;;;;;5052298;28;20253;-67
2024/02/29 06:43:37;;;;;;;58.23;28.17;;;;;;;;;;5050030;28;20649;-67
2024/02/29 06:46:06;;;;;;;51.90;28.53;;;;;;;;;;5050038;28;20222;-68
2024/02/29 06:48:33;;;;;;;54.67;28.60;;;;;;;;;;5055141;28;20651;-69
2024/02/29 06:51:01;;;;;;;45.57;26.70;;;;;;;;;;5060478;28;20253;-68
2024/02/29 06:53:30;;;;;;;49.10;29.30;;;;;;;;;;5048767;28;20216;-69
2024/02/29 06:55:58;;;;;;;59.13;30.93;;;;;;;;;;5050751;28;20286;-70
2024/02/29 06:58:26;;;;;;;56.03;30.03;;;;;;;;;;5052261;28;20267;-69
2024/02/29 07:00:53;;;;;;;59.80;32.17;;;;;;;;;;5054909;28;20320;-67
2024/02/29 07:03:22;;;;;;;61.53;33.70;;;;;;;;;;5041272;28;20265;-68
2024/02/29 07:05:49;;;;;;;55.70;28.03;;;;;;;;;;5051895;28;20292;-70
2024/02/29 07:08:17;;;;;;;60.53;31.90;;;;;;;;;;5049983;28;20204;-69
2024/02/29 07:10:44;;;;;;;58.70;30.07;;;;;;;;;;5053278;28;20205;-69
2024/02/29 07:13:12;;;;;;;62.90;32.07;;;;;;;;;;5053985;28;20225;-69
2024/02/29 07:15:40;;;;;;;62.43;31.70;;;;;;;;;;5053575;28;20203;-69
2024/02/29 07:18:08;;;;;;;57.50;32.93;;;;;;;;;;5053646;28;20264;-69
2024/02/29 07:20:35;;;;;;;60.00;32.27;;;;;;;;;;5047452;28;20199;-71
2024/02/29 07:23:03;;;;;;;69.93;31.30;;;;;;;;;;5047501;28;20658;-70
2024/02/29 07:25:30;;;;;;;61.60;31.00;;;;;;;;;;5048562;28;20227;-69
2024/02/29 07:27:58;;;;;;;52.67;29.33;;;;;;;;;;5060461;28;20196;-70
2024/02/29 07:30:29;;;;;;;50.73;29.47;;;;;;;;;;5050614;28;20207;-75
2024/02/29 07:32:57;;;;;;;56.07;28.77;;;;;;;;;;5051970;28;20220;-70
2024/02/29 07:35:25;;;;;;;55.20;29.80;;;;;;;;;;5050472;28;20196;-64
2024/02/29 07:37:53;;;;;;;50.60;28.10;;;;;;;;;;5054897;28;20204;-66
2024/02/29 07:40:20;;;;;;;55.67;31.30;;;;;;;;;;5056283;28;20246;-71
2024/02/29 07:42:47;;;;;;;60.40;30.30;;;;;;;;;;5059491;28;20223;-72
2024/02/29 07:45:14;;;;;;;57.53;31.13;;;;;;;;;;5057779;28;20644;-72
2024/02/29 07:47:43;;;;;;;62.93;30.47;;;;;;;;;;5050591;28;20207;-75
2024/02/29 07:50:10;;;;;;;58.77;30.07;;;;;;;;;;5052367;28;20200;-74
2024/02/29 07:52:41;;;;;;;56.47;30.40;;;;;;;;;;5057363;28;20229;-75
2024/02/29 07:55:10;;;;;;;52.50;29.63;;;;;;;;;;5053093;28;20195;-68
2024/02/29 07:57:37;;;;;;;57.57;30.40;;;;;;;;;;5052085;28;20679;-69
2024/02/29 08:00:05;;;;;;;56.30;30.60;;;;;;;;;;5057115;28;20218;-68
2024/02/29 08:02:35;;;;;;;60.33;29.50;;;;;;;;;;5054465;28;20367;-68
2024/02/29 08:05:04;;;;;;;56.73;29.50;;;;;;;;;;5047946;28;20620;-68
2024/02/29 08:07:31;;;;;;;55.77;28.07;;;;;;;;;;5055550;28;20200;-68
2024/02/29 08:09:59;;;;;;;51.47;30.20;;;;;;;;;;5057410;28;20211;-68
2024/02/29 08:12:26;;;;;;;55.13;30.00;;;;;;;;;;5046847;28;20204;-68
2024/02/29 08:14:54;;;;;;;50.70;28.30;;;;;;;;;;5051398;28;20245;-68
2024/02/29 08:17:21;;;;;;;55.33;29.87;;;;;;;;;;5052073;28;20664;-71
2024/02/29 08:19:48;;;;;;;57.60;30.67;;;;;;;;;;5051470;28;20246;-70
2024/02/29 08:22:17;;;;;;;51.43;28.40;;;;;;;;;;5049156;28;20204;-70
2024/02/29 08:24:44;;;;;;;49.63;28.83;;;;;;;;;;5046730;28;20219;-70
2024/02/29 08:27:11;;;;;;;56.13;29.30;;;;;;;;;;5051241;28;20631;-70
2024/02/29 08:29:38;;;;;;;50.27;28.83;;;;;;;;;;5051080;28;20204;-71
2024/02/29 08:32:06;;;;;;;59.10;30.20;;;;;;;;;;5050249;28;20680;-71
2024/02/29 08:34:33;;;;;;;48.00;28.20;;;;;;;;;;5049578;28;20214;-71
2024/02/29 08:37:02;;;;;;;52.67;30.47;;;;;;;;;;5043109;28;20204;-71
2024/02/29 08:39:30;;;;;;;53.40;30.30;;;;;;;;;;5051684;28;20202;-71
2024/02/29 08:41:58;;;;;;;50.00;27.93;;;;;;;;;;5038635;28;20205;-71
2024/02/29 08:44:25;;;;;;;49.63;27.57;;;;;;;;;;5037092;28;20597;-71
2024/02/29 08:46:53;;;;;;;50.20;29.13;;;;;;;;;;5053452;28;20200;-71
2024/02/29 08:49:21;;;;;;;47.77;26.23;;;;;;;;;;5054816;28;20207;-70
2024/02/29 08:51:48;;;;;;;59.10;30.27;;;;;;;;;;5054349;28;20204;-71
2024/02/29 08:54:15;;;;;;;44.60;29.10;;;12.30;99.90;;;;;;5052666;28;20228;-70
2024/02/29 08:56:45;;;;;;;44.73;27.77;;;;;;;;;;5054013;28;20206;-71
2024/02/29 08:59:11;;;;;;;47.00;27.87;;;12.10;99.90;;;;;;5054294;28;20254;-71
2024/02/29 09:01:39;;;;;;;51.83;28.30;;;12.30;99.90;;;;;;5037490;28;20202;-71
2024/02/29 09:04:06;;;;;;;50.83;29.50;;;12.40;99.90;;;;;;5052497;28;20225;-71
2024/02/29 09:06:33;;;;;;;44.07;25.53;;;;;;;;;;5048401;28;20240;-71
2024/02/29 09:09:00;;;;;;;41.43;24.60;;;;;;;;;;5051648;28;20208;-70
2024/02/29 09:11:29;;;;;;;37.23;23.50;;;;;;;;;;5053884;28;20232;-71
2024/02/29 09:13:57;;;;;;;41.27;25.83;;;;;;;;;;5050006;28;20236;-71
2024/02/29 09:16:24;;;;;;;45.33;26.57;;;13.00;99.90;;;;;;5053215;28;20228;-71
2024/02/29 09:18:51;;;;;;;44.90;27.07;;;;;;;;;;5054040;28;20235;-71
2024/02/29 09:21:18;;;;;;;43.80;27.07;;;;;;;;;;5054016;28;20242;-71
2024/02/29 09:23:45;;;;;;;46.43;27.77;;;;;;;;;;5051582;28;20256;-71
2024/02/29 09:26:16;;;;;;;42.83;26.57;;;;;;;;;;5041430;28;20251;-72
2024/02/29 09:28:43;;;;;;;49.60;27.73;;;;;;;;;;5053580;28;20223;-71
2024/02/29 09:31:13;;;;;;;47.47;27.07;;;;;;;;;;5053666;28;20200;-72
2024/02/29 09:33:40;;;;;;;40.53;25.60;;;;;;;;;;5054255;28;20701;-71
2024/02/29 09:36:09;;;;;;;43.10;25.03;;;;;;;;;;5053372;28;20202;-71
2024/02/29 09:38:36;;;;;;;43.60;25.97;;;;;;;;;;5052496;28;20198;-71
2024/02/29 09:41:04;;;;;;;38.43;25.20;;;;;;;;;;5053452;28;20273;-70
2024/02/29 09:43:31;;;;;;;32.07;21.67;;;;;;;;;;5047428;28;20245;-70
2024/02/29 09:46:00;;;;;;;37.60;23.17;;;;;;;;;;5052209;28;20225;-71
2024/02/29 09:48:29;;;;;;;32.80;23.30;;;;;;;;;;5053591;28;20201;-71
2024/02/29 09:50:57;;;;;;;38.63;23.33;;;;;;;;;;5046327;28;20252;-71
2024/02/29 09:53:25;;;;;;;34.60;22.63;;;;;;;;;;5053204;28;20245;-70
2024/02/29 09:55:52;;;;;;;33.97;22.07;;;15.50;99.90;;;;;;5052453;28;20244;-71
2024/02/29 09:58:20;;;;;;;35.17;23.40;;;;;;;;;;5053061;28;20236;-71
2024/02/29 10:00:48;;;;;;;43.03;27.00;;;14.40;99.90;;;;;;5047956;28;20205;-71
2024/02/29 10:03:17;;;;;;;37.00;23.73;;;14.50;99.90;;;;;;5054578;28;20267;-71
2024/02/29 10:05:46;;;;;;;39.90;24.97;;;14.60;99.90;;;;;;5052178;28;20279;-71
2024/02/29 10:08:13;;;;;;;37.00;23.00;;;15.00;99.90;;;;;;5044049;28;20226;-70
2024/02/29 10:10:40;;;;;;;37.30;23.90;;;15.20;99.90;;;;;;5046499;28;20475;-75
2024/02/29 10:13:07;;;;;;;38.57;25.47;;;;;;;;;;5052772;28;20221;-73
2024/02/29 10:15:35;;;;;;;35.43;22.87;;;;;;;;;;5050083;28;20681;-74
2024/02/29 10:18:02;;;;;;;38.67;25.57;;;;;;;;;;5050982;28;20201;-75
2024/02/29 10:20:32;;;;;;;40.93;26.43;;;;;;;;;;5053962;28;20197;-74
2024/02/29 10:23:00;;;;;;;30.00;22.57;;;;;;;;;;5054336;28;20212;-69
2024/02/29 10:25:28;;;;;;;38.07;24.13;;;;;;;;;;5048969;28;20213;-72
2024/02/29 10:28:02;;;;;;;32.13;21.70;;;;;;;;;;5047620;28;20202;-73
2024/02/29 10:30:30;;;;;;;40.17;26.40;;;;;;;;;;5054573;28;20296;-74
2024/02/29 10:32:57;;;;;;;35.53;24.43;;;;;;;;;;5059868;28;20306;-75
2024/02/29 10:35:26;;;;;;;45.40;26.80;;;;;;;;;;5054002;28;20252;-75
2024/02/29 10:37:54;;;;;;;42.20;26.37;;;;;;;;;;5065691;28;20211;-75
2024/02/29 10:40:23;;;;;;;41.50;27.30;;;;;;;;;;5050825;28;20228;-76
2024/02/29 10:42:51;;;;;;;41.77;26.40;;;;;;;;;;5055443;28;20242;-75
2024/02/29 10:45:19;;;;;;;43.63;25.37;;;;;;;;;;5047751;28;20267;-75
2024/02/29 10:47:51;;;;;;;45.30;25.77;;;;;;;;;;5053987;28;20202;-75
2024/02/29 10:50:21;;;;;;;43.07;23.60;;;;;;;;;;5052606;28;20538;-77
2024/02/29 10:52:50;;;;;;;43.07;24.87;;;;;;;;;;5052880;28;20228;-77
2024/02/29 10:55:20;;;;;;;40.30;25.70;;;;;;;;;;5050489;28;20284;-74
2024/02/29 10:57:54;;;;;;;44.97;25.57;;;;;;;;;;5052219;28;20313;-69
2024/02/29 11:00:22;;;;;;;42.23;24.30;;;;;;;;;;5054893;28;20279;-70
2024/02/29 11:02:50;;;;;;;43.20;26.43;;;;;;;;;;5052932;28;20320;-72
2024/02/29 11:05:18;;;;;;;40.33;24.33;;;;;;;;;;5053992;28;20219;-77
2024/02/29 11:07:45;;;;;;;38.80;22.90;;;;;;;;;;5058239;28;20213;-74
2024/02/29 11:10:12;;;;;;;43.30;26.13;;;;;;;;;;5048009;28;20201;-76
2024/02/29 11:12:44;;;;;;;35.20;23.30;;;;;;;;;;5055622;28;20368;-76
2024/02/29 11:15:13;;;;;;;44.43;22.97;;;;;;;;;;5051132;28;20208;-75
2024/02/29 11:17:41;;;;;;;39.43;21.90;;;;;;;;;;5047672;28;20204;-75
2024/02/29 11:20:09;;;;;;;39.33;22.70;;;;;;;;;;5054132;28;20199;-76
2024/02/29 11:22:40;;;;;;;34.33;21.27;;;;;;;;;;5053988;28;20218;-73
2024/02/29 11:25:09;;;;;;;31.53;19.77;;;;;;;;;;5049485;28;20201;-70
2024/02/29 11:27:38;;;;;;;34.43;22.27;;;;;;;;;;5067356;28;20243;-73
2024/02/29 11:30:07;;;;;;;32.80;20.27;;;;;;;;;;5055835;28;20675;-71
2024/02/29 11:32:37;;;;;;;36.67;21.00;;;;;;;;;;5052596;28;20672;-68
2024/02/29 11:35:04;;;;;;;35.00;20.90;;;;;;;;;;5046659;28;20584;-64
2024/02/29 11:37:33;;;;;;;33.60;19.27;;;;;;;;;;5054616;28;20200;-63
2024/02/29 11:40:04;;;;;;;32.67;19.70;;;;;;;;;;5067733;28;20243;-64
2024/02/29 11:42:31;;;;;;;29.10;18.30;;;;;;;;;;5067382;28;20210;-64
2024/02/29 11:44:58;;;;;;;33.20;20.77;;;;;;;;;;5061443;28;20246;-64
2024/02/29 11:47:26;;;;;;;31.50;19.10;;;;;;;;;;5071082;28;20220;-64
2024/02/29 11:49:59;;;;;;;33.37;19.13;;;;;;;;;;5070825;28;20597;-64
2024/02/29 11:52:26;;;;;;;29.03;17.87;;;;;;;;;;5062111;28;20636;-66
2024/02/29 11:54:54;;;;;;;31.47;18.33;;;;;;;;;;5056463;28;20620;-67
2024/02/29 11:57:23;;;;;;;29.80;17.93;;;;;;;;;;5040276;28;20194;-66
2024/02/29 11:59:51;;;;;;;30.27;19.07;;;;;;;;;;5047007;28;20643;-67
2024/02/29 12:02:18;;;;;;;35.07;19.23;;;;;;;;;;5046374;28;20645;-70
2024/02/29 12:04:46;;;;;;;30.37;20.10;;;;;;;;;;5046369;28;20617;-71
2024/02/29 12:07:15;;;;;;;33.03;20.27;;;;;;;;;;5049360;28;20228;-69
2024/02/29 12:09:42;;;;;;;28.87;17.60;;;;;;;;;;5046430;28;20252;-70
2024/02/29 12:12:10;;;;;;;31.07;20.23;;;;;;;;;;5057393;28;20870;-71
2024/02/29 12:14:38;;;;;;;31.43;18.90;;;;;;;;;;5050939;28;20773;-70
2024/02/29 12:17:06;;;;;;;31.20;17.97;;;;;;;;;;5054317;28;20203;-71
2024/02/29 12:19:33;;;;;;;35.57;20.33;;;;;;;;;;5056163;28;20208;-69
2024/02/29 12:22:00;;;;;;;28.87;18.40;;;;;;;;;;5059463;28;20207;-69
2024/02/29 12:24:29;;;;;;;34.60;18.97;;;;;;;;;;5055533;28;20338;-70
2024/02/29 12:26:56;;;;;;;31.13;19.37;;;;;;;;;;5056564;28;20231;-72
2024/02/29 12:29:24;;;;;;;35.83;19.57;;;;;;;;;;5047741;28;20630;-69
2024/02/29 12:31:51;;;;;;;27.17;18.73;;;;;;;;;;5054664;28;20207;-69
2024/02/29 12:34:18;;;;;;;32.07;19.17;;;;;;;;;;5053752;28;20704;-68
2024/02/29 12:36:47;;;;;;;32.93;20.03;;;;;;;;;;5055856;28;20203;-69
2024/02/29 12:39:18;;;;;;;33.97;19.47;;;;;;;;;;5058295;28;20194;-72
2024/02/29 12:41:47;;;;;;;43.00;21.07;;;;;;;;;;5060128;28;20205;-70
2024/02/29 12:44:14;;;;;;;36.73;19.97;;;;;;;;;;5050841;28;20705;-69
2024/02/29 12:46:41;;;;;;;30.63;19.23;;;;;;;;;;5053765;28;20224;-71
2024/02/29 12:49:09;;;;;;;35.00;20.80;;;;;;;;;;5053167;28;20291;-75
2024/02/29 12:51:36;;;;;;;35.00;21.20;;;;;;;;;;5048997;28;20202;-71
2024/02/29 12:54:03;;;;;;;33.97;22.03;;;;;;;;;;5055454;28;20270;-71
2024/02/29 12:56:30;;;;;;;35.30;21.13;;;;;;;;;;5055543;28;20243;-68
2024/02/29 12:58:59;;;;;;;33.27;19.90;;;;;;;;;;5062395;28;20210;-68
2024/02/29 13:01:26;;;;;;;30.93;19.93;;;;;;;;;;5050948;28;20200;-66
2024/02/29 13:03:53;;;;;;;35.80;20.37;;;;;;;;;;5072217;28;20223;-66
2024/02/29 13:06:21;;;;;;;39.67;22.20;;;;;;;;;;5070018;28;20641;-68
2024/02/29 13:08:48;;;;;;;39.03;22.37;;;;;;;;;;5048747;28;20768;-68
2024/02/29 13:11:15;;;;;;;38.60;23.60;;;;;;;;;;5062453;28;20265;-66
2024/02/29 13:13:43;;;;;;;37.53;22.57;;;;;;;;;;5073377;28;20225;-71
2024/02/29 13:16:11;;;;;;;35.13;21.10;;;;;;;;;;5056313;28;20201;-68
2024/02/29 13:18:39;;;;;;;39.20;22.43;;;;;;;;;;5056248;28;20200;-68
2024/02/29 13:21:06;;;;;;;36.07;21.47;;;;;;;;;;5057488;28;20199;-69
2024/02/29 13:23:34;;;;;;;36.67;20.53;;;;;;;;;;5063342;28;20221;-67
2024/02/29 13:26:01;;;;;;;42.60;21.90;;;;;;;;;;5055685;28;20282;-66
2024/02/29 13:28:28;;;;;;;35.03;21.97;;;;;;;;;;5042776;28;20209;-68
2024/02/29 13:30:55;;;;;;;35.90;20.67;;;;;;;;;;5053403;28;20212;-69
2024/02/29 13:33:24;;;;;;;39.30;24.23;;;;;;;;;;5045304;28;20270;-68
2024/02/29 13:35:51;;;;;;;39.73;21.53;;;;;;;;;;5050548;28;20206;-70
2024/02/29 13:38:18;;;;;;;36.07;20.77;;;;;;;;;;5054945;28;20193;-72
2024/02/29 13:40:46;;;;;;;39.67;23.47;;;;;;;;;;5051427;28;20209;-71
2024/02/29 13:43:13;;;;;;;33.40;21.20;;;;;;;;;;5050355;28;20769;-72
2024/02/29 13:45:40;;;;;;;36.30;20.60;;;;;;;;;;5047599;28;20203;-72
2024/02/29 13:48:08;;;;;;;38.83;21.60;;;;;;;;;;5055125;28;20200;-72
2024/02/29 13:50:36;;;;;;;34.47;20.33;;;;;;;;;;5055136;28;20666;-71
2024/02/29 13:53:03;;;;;;;32.33;20.17;;;;;;;;;;5059125;28;20747;-72
2024/02/29 13:55:31;;;;;;;35.90;19.60;;;;;;;;;;5058674;28;20258;-75